sensor_id;sensor_type;location;lat;lon;timestamp;P1;durP1;ratioP1;P2;durP2;ratioP2
40847;SDS011;26570;50.962;5.340;2023-04-24T00:04:43;11.40;;;7.18;;
40847;SDS011;26570;50.962;5.340;2023-04-24T00:07:30;15.33;;;8.60;;
40847;SDS011;26570;50.962;5.340;2023-04-24T00:10:15;17.77;;;9.63;;
40847;SDS011;26570;50.962;5.340;2023-04-24T00:13:01;19.03;;;9.97;;
40847;SDS011;26570;50.962;5.340;2023-04-24T00:15:46;15.00;;;10.57;;
40847;SDS011;26570;50.962;5.340;2023-04-24T00:18:32;17.27;;;9.83;;
40847;SDS011;26570;50.962;5.340;2023-04-24T00:21:17;25.80;;;10.30;;
40847;SDS011;26570;50.962;5.340;2023-04-24T00:24:04;18.30;;;10.37;;
40847;SDS011;26570;50.962;5.340;2023-04-24T00:26:50;22.17;;;10.37;;
40847;SDS011;26570;50.962;5.340;2023-04-24T00:29:35;14.83;;;10.10;;
40847;SDS011;26570;50.962;5.340;2023-04-24T00:32:24;21.57;;;11.50;;
40847;SDS011;26570;50.962;5.340;2023-04-24T00:35:09;18.40;;;10.17;;
40847;SDS011;26570;50.962;5.340;2023-04-24T00:37:54;19.43;;;11.03;;
40847;SDS011;26570;50.962;5.340;2023-04-24T00:40:39;21.57;;;10.50;;
40847;SDS011;26570;50.962;5.340;2023-04-24T00:43:25;20.83;;;12.20;;
40847;SDS011;26570;50.962;5.340;2023-04-24T00:46:11;32.03;;;12.53;;
40847;SDS011;26570;50.962;5.340;2023-04-24T00:48:57;22.63;;;11.87;;
40847;SDS011;26570;50.962;5.340;2023-04-24T00:51:44;26.27;;;13.07;;
40847;SDS011;26570;50.962;5.340;2023-04-24T00:54:52;22.37;;;13.00;;
40847;SDS011;26570;50.962;5.340;2023-04-24T00:57:37;25.13;;;13.83;;
40847;SDS011;26570;50.962;5.340;2023-04-24T01:00:46;24.83;;;14.43;;
40847;SDS011;26570;50.962;5.340;2023-04-24T01:03:32;22.60;;;13.53;;
40847;SDS011;26570;50.962;5.340;2023-04-24T01:06:20;27.33;;;14.07;;
40847;SDS011;26570;50.962;5.340;2023-04-24T01:09:08;25.13;;;14.97;;
40847;SDS011;26570;50.962;5.340;2023-04-24T01:11:57;25.73;;;14.87;;
40847;SDS011;26570;50.962;5.340;2023-04-24T01:14:43;22.27;;;13.83;;
40847;SDS011;26570;50.962;5.340;2023-04-24T01:17:29;32.10;;;16.03;;
40847;SDS011;26570;50.962;5.340;2023-04-24T01:20:15;24.83;;;14.73;;
40847;SDS011;26570;50.962;5.340;2023-04-24T01:23:01;25.63;;;14.20;;
40847;SDS011;26570;50.962;5.340;2023-04-24T01:26:11;33.77;;;14.30;;
40847;SDS011;26570;50.962;5.340;2023-04-24T01:28:57;24.27;;;14.17;;
40847;SDS011;26570;50.962;5.340;2023-04-24T01:31:42;24.07;;;14.93;;
40847;SDS011;26570;50.962;5.340;2023-04-24T01:34:28;31.83;;;13.93;;
40847;SDS011;26570;50.962;5.340;2023-04-24T01:37:14;25.47;;;13.97;;
40847;SDS011;26570;50.962;5.340;2023-04-24T01:39:59;29.30;;;13.97;;
40847;SDS011;26570;50.962;5.340;2023-04-24T01:42:48;24.13;;;13.57;;
40847;SDS011;26570;50.962;5.340;2023-04-24T01:45:33;23.50;;;13.20;;
40847;SDS011;26570;50.962;5.340;2023-04-24T01:48:19;21.10;;;13.37;;
40847;SDS011;26570;50.962;5.340;2023-04-24T01:51:27;23.83;;;13.97;;
40847;SDS011;26570;50.962;5.340;2023-04-24T01:54:12;28.53;;;14.27;;
40847;SDS011;26570;50.962;5.340;2023-04-24T01:56:58;19.70;;;13.67;;
40847;SDS011;26570;50.962;5.340;2023-04-24T01:59:47;19.40;;;13.00;;
40847;SDS011;26570;50.962;5.340;2023-04-24T02:02:32;24.93;;;12.97;;
40847;SDS011;26570;50.962;5.340;2023-04-24T02:05:18;22.50;;;13.30;;
40847;SDS011;26570;50.962;5.340;2023-04-24T02:08:03;25.60;;;13.67;;
40847;SDS011;26570;50.962;5.340;2023-04-24T02:10:49;27.60;;;12.77;;
40847;SDS011;26570;50.962;5.340;2023-04-24T02:13:35;27.90;;;15.47;;
40847;SDS011;26570;50.962;5.340;2023-04-24T02:16:20;22.33;;;13.57;;
40847;SDS011;26570;50.962;5.340;2023-04-24T02:19:06;31.53;;;15.70;;
40847;SDS011;26570;50.962;5.340;2023-04-24T02:22:14;25.97;;;15.53;;
40847;SDS011;26570;50.962;5.340;2023-04-24T02:24:59;25.70;;;14.13;;
40847;SDS011;26570;50.962;5.340;2023-04-24T02:27:49;19.70;;;14.83;;
40847;SDS011;26570;50.962;5.340;2023-04-24T02:30:34;30.53;;;14.50;;
40847;SDS011;26570;50.962;5.340;2023-04-24T02:33:20;34.30;;;14.97;;
40847;SDS011;26570;50.962;5.340;2023-04-24T02:36:06;23.97;;;13.70;;
40847;SDS011;26570;50.962;5.340;2023-04-24T02:38:51;21.17;;;13.73;;
40847;SDS011;26570;50.962;5.340;2023-04-24T02:41:37;25.07;;;13.67;;
40847;SDS011;26570;50.962;5.340;2023-04-24T02:44:23;25.33;;;14.50;;
40847;SDS011;26570;50.962;5.340;2023-04-24T02:47:31;24.07;;;14.47;;
40847;SDS011;26570;50.962;5.340;2023-04-24T02:50:16;22.67;;;14.23;;
40847;SDS011;26570;50.962;5.340;2023-04-24T02:53:02;24.53;;;14.73;;
40847;SDS011;26570;50.962;5.340;2023-04-24T02:55:47;18.07;;;13.53;;
40847;SDS011;26570;50.962;5.340;2023-04-24T02:58:32;23.43;;;13.80;;
40847;SDS011;26570;50.962;5.340;2023-04-24T03:01:42;21.80;;;14.10;;
40847;SDS011;26570;50.962;5.340;2023-04-24T03:04:50;18.37;;;14.40;;
40847;SDS011;26570;50.962;5.340;2023-04-24T03:07:36;22.10;;;14.80;;
40847;SDS011;26570;50.962;5.340;2023-04-24T03:10:21;22.67;;;13.13;;
40847;SDS011;26570;50.962;5.340;2023-04-24T03:13:09;20.57;;;14.17;;
40847;SDS011;26570;50.962;5.340;2023-04-24T03:15:58;21.23;;;14.50;;
40847;SDS011;26570;50.962;5.340;2023-04-24T03:18:47;23.93;;;14.60;;
40847;SDS011;26570;50.962;5.340;2023-04-24T03:21:33;26.37;;;14.23;;
40847;SDS011;26570;50.962;5.340;2023-04-24T03:24:20;22.03;;;14.93;;
40847;SDS011;26570;50.962;5.340;2023-04-24T03:27:05;26.03;;;15.77;;
40847;SDS011;26570;50.962;5.340;2023-04-24T03:29:51;25.43;;;16.83;;
40847;SDS011;26570;50.962;5.340;2023-04-24T03:32:39;24.97;;;17.43;;
40847;SDS011;26570;50.962;5.340;2023-04-24T03:35:25;22.90;;;16.87;;
40847;SDS011;26570;50.962;5.340;2023-04-24T03:38:11;24.03;;;16.97;;
40847;SDS011;26570;50.962;5.340;2023-04-24T03:40:56;30.17;;;16.07;;
40847;SDS011;26570;50.962;5.340;2023-04-24T03:43:42;24.67;;;16.93;;
40847;SDS011;26570;50.962;5.340;2023-04-24T03:46:27;29.87;;;16.00;;
40847;SDS011;26570;50.962;5.340;2023-04-24T03:49:13;26.83;;;15.77;;
40847;SDS011;26570;50.962;5.340;2023-04-24T03:51:58;23.43;;;16.03;;
40847;SDS011;26570;50.962;5.340;2023-04-24T03:54:43;21.40;;;14.60;;
40847;SDS011;26570;50.962;5.340;2023-04-24T03:57:28;21.97;;;13.73;;
40847;SDS011;26570;50.962;5.340;2023-04-24T04:00:14;23.57;;;15.13;;
40847;SDS011;26570;50.962;5.340;2023-04-24T04:03:00;23.83;;;14.83;;
40847;SDS011;26570;50.962;5.340;2023-04-24T04:05:45;20.67;;;14.53;;
40847;SDS011;26570;50.962;5.340;2023-04-24T04:08:53;25.80;;;14.77;;
40847;SDS011;26570;50.962;5.340;2023-04-24T04:11:39;22.47;;;14.73;;
40847;SDS011;26570;50.962;5.340;2023-04-24T04:14:24;25.70;;;15.80;;
40847;SDS011;26570;50.962;5.340;2023-04-24T04:17:12;23.13;;;15.00;;
40847;SDS011;26570;50.962;5.340;2023-04-24T04:19:58;24.47;;;14.27;;
40847;SDS011;26570;50.962;5.340;2023-04-24T04:22:44;21.80;;;14.83;;
40847;SDS011;26570;50.962;5.340;2023-04-24T04:25:30;21.87;;;13.27;;
40847;SDS011;26570;50.962;5.340;2023-04-24T04:28:18;21.03;;;12.83;;
40847;SDS011;26570;50.962;5.340;2023-04-24T04:31:05;19.97;;;12.73;;
40847;SDS011;26570;50.962;5.340;2023-04-24T04:33:52;19.47;;;12.43;;
40847;SDS011;26570;50.962;5.340;2023-04-24T04:36:37;20.20;;;12.50;;
40847;SDS011;26570;50.962;5.340;2023-04-24T04:39:24;22.47;;;12.23;;
40847;SDS011;26570;50.962;5.340;2023-04-24T04:42:32;21.67;;;13.30;;
40847;SDS011;26570;50.962;5.340;2023-04-24T04:45:18;17.43;;;11.83;;
40847;SDS011;26570;50.962;5.340;2023-04-24T04:48:04;18.43;;;12.20;;
40847;SDS011;26570;50.962;5.340;2023-04-24T04:51:13;23.67;;;12.50;;
40847;SDS011;26570;50.962;5.340;2023-04-24T04:53:58;18.57;;;11.80;;
40847;SDS011;26570;50.962;5.340;2023-04-24T04:56:44;17.43;;;11.37;;
40847;SDS011;26570;50.962;5.340;2023-04-24T04:59:30;20.33;;;12.87;;
40847;SDS011;26570;50.962;5.340;2023-04-24T05:02:15;18.17;;;12.30;;
40847;SDS011;26570;50.962;5.340;2023-04-24T05:05:00;15.73;;;9.37;;
40847;SDS011;26570;50.962;5.340;2023-04-24T05:07:46;13.37;;;9.57;;
40847;SDS011;26570;50.962;5.340;2023-04-24T05:10:31;13.63;;;9.50;;
40847;SDS011;26570;50.962;5.340;2023-04-24T05:13:17;12.80;;;10.20;;
40847;SDS011;26570;50.962;5.340;2023-04-24T05:16:02;11.67;;;9.63;;
40847;SDS011;26570;50.962;5.340;2023-04-24T05:18:48;12.70;;;9.27;;
40847;SDS011;26570;50.962;5.340;2023-04-24T05:21:33;12.63;;;8.30;;
40847;SDS011;26570;50.962;5.340;2023-04-24T05:24:18;13.57;;;8.70;;
40847;SDS011;26570;50.962;5.340;2023-04-24T05:27:03;11.67;;;7.63;;
40847;SDS011;26570;50.962;5.340;2023-04-24T05:29:49;10.23;;;7.20;;
40847;SDS011;26570;50.962;5.340;2023-04-24T05:32:35;10.97;;;6.73;;
40847;SDS011;26570;50.962;5.340;2023-04-24T05:35:21;12.23;;;8.10;;
40847;SDS011;26570;50.962;5.340;2023-04-24T05:38:06;13.00;;;7.03;;
40847;SDS011;26570;50.962;5.340;2023-04-24T05:40:51;11.10;;;7.17;;
40847;SDS011;26570;50.962;5.340;2023-04-24T05:43:37;6.60;;;4.90;;
40847;SDS011;26570;50.962;5.340;2023-04-24T05:46:23;8.10;;;4.70;;
40847;SDS011;26570;50.962;5.340;2023-04-24T05:49:08;5.93;;;2.90;;
40847;SDS011;26570;50.962;5.340;2023-04-24T05:51:54;6.70;;;3.07;;
40847;SDS011;26570;50.962;5.340;2023-04-24T05:54:39;6.53;;;4.10;;
40847;SDS011;26570;50.962;5.340;2023-04-24T05:57:24;7.27;;;4.53;;
40847;SDS011;26570;50.962;5.340;2023-04-24T06:00:10;7.57;;;4.67;;
40847;SDS011;26570;50.962;5.340;2023-04-24T06:02:59;8.40;;;6.30;;
40847;SDS011;26570;50.962;5.340;2023-04-24T06:05:45;11.97;;;6.43;;
40847;SDS011;26570;50.962;5.340;2023-04-24T06:08:30;6.63;;;5.87;;
40847;SDS011;26570;50.962;5.340;2023-04-24T06:11:16;10.83;;;6.90;;
40847;SDS011;26570;50.962;5.340;2023-04-24T06:14:02;9.63;;;7.17;;
40847;SDS011;26570;50.962;5.340;2023-04-24T06:17:10;12.23;;;6.83;;
40847;SDS011;26570;50.962;5.340;2023-04-24T06:19:58;13.37;;;7.20;;
40847;SDS011;26570;50.962;5.340;2023-04-24T06:22:46;13.20;;;8.77;;
40847;SDS011;26570;50.962;5.340;2023-04-24T06:25:31;17.63;;;9.27;;
40847;SDS011;26570;50.962;5.340;2023-04-24T06:28:21;16.90;;;9.30;;
40847;SDS011;26570;50.962;5.340;2023-04-24T06:31:06;15.97;;;8.90;;
40847;SDS011;26570;50.962;5.340;2023-04-24T06:33:51;14.80;;;9.33;;
40847;SDS011;26570;50.962;5.340;2023-04-24T06:36:58;14.93;;;8.90;;
40847;SDS011;26570;50.962;5.340;2023-04-24T06:39:43;11.53;;;8.87;;
40847;SDS011;26570;50.962;5.340;2023-04-24T06:42:31;16.90;;;9.10;;
40847;SDS011;26570;50.962;5.340;2023-04-24T06:45:16;11.87;;;8.37;;
40847;SDS011;26570;50.962;5.340;2023-04-24T06:48:01;17.40;;;8.27;;
40847;SDS011;26570;50.962;5.340;2023-04-24T06:50:46;11.87;;;8.40;;
40847;SDS011;26570;50.962;5.340;2023-04-24T06:53:34;13.90;;;7.43;;
40847;SDS011;26570;50.962;5.340;2023-04-24T06:56:24;14.77;;;7.77;;
40847;SDS011;26570;50.962;5.340;2023-04-24T06:59:09;13.63;;;7.13;;
40847;SDS011;26570;50.962;5.340;2023-04-24T07:02:00;14.43;;;8.33;;
40847;SDS011;26570;50.962;5.340;2023-04-24T07:04:45;13.80;;;8.97;;
40847;SDS011;26570;50.962;5.340;2023-04-24T07:07:35;14.97;;;8.20;;
40847;SDS011;26570;50.962;5.340;2023-04-24T07:10:22;20.43;;;11.17;;
40847;SDS011;26570;50.962;5.340;2023-04-24T07:13:09;18.10;;;9.53;;
40847;SDS011;26570;50.962;5.340;2023-04-24T07:15:54;17.80;;;11.37;;
40847;SDS011;26570;50.962;5.340;2023-04-24T07:18:40;16.60;;;10.27;;
40847;SDS011;26570;50.962;5.340;2023-04-24T07:21:25;17.57;;;10.63;;
40847;SDS011;26570;50.962;5.340;2023-04-24T07:24:11;22.33;;;12.13;;
40847;SDS011;26570;50.962;5.340;2023-04-24T07:26:57;24.07;;;13.37;;
40847;SDS011;26570;50.962;5.340;2023-04-24T07:29:42;24.83;;;13.93;;
40847;SDS011;26570;50.962;5.340;2023-04-24T07:32:26;23.63;;;12.77;;
40847;SDS011;26570;50.962;5.340;2023-04-24T07:35:11;25.40;;;12.97;;
40847;SDS011;26570;50.962;5.340;2023-04-24T07:37:57;25.63;;;15.33;;
40847;SDS011;26570;50.962;5.340;2023-04-24T07:40:42;27.37;;;15.27;;
40847;SDS011;26570;50.962;5.340;2023-04-24T07:43:27;26.97;;;15.67;;
40847;SDS011;26570;50.962;5.340;2023-04-24T07:46:12;22.37;;;13.97;;
40847;SDS011;26570;50.962;5.340;2023-04-24T07:48:57;24.37;;;15.40;;
40847;SDS011;26570;50.962;5.340;2023-04-24T07:51:44;28.57;;;14.33;;
40847;SDS011;26570;50.962;5.340;2023-04-24T07:54:54;19.27;;;12.00;;
40847;SDS011;26570;50.962;5.340;2023-04-24T07:57:42;19.03;;;11.77;;
40847;SDS011;26570;50.962;5.340;2023-04-24T08:00:28;17.20;;;10.70;;
40847;SDS011;26570;50.962;5.340;2023-04-24T08:03:14;18.20;;;10.37;;
40847;SDS011;26570;50.962;5.340;2023-04-24T08:06:02;18.50;;;12.37;;
40847;SDS011;26570;50.962;5.340;2023-04-24T08:08:48;20.20;;;13.57;;
40847;SDS011;26570;50.962;5.340;2023-04-24T08:11:33;24.10;;;15.00;;
40847;SDS011;26570;50.962;5.340;2023-04-24T08:14:19;24.50;;;15.20;;
40847;SDS011;26570;50.962;5.340;2023-04-24T08:17:04;25.43;;;13.50;;
40847;SDS011;26570;50.962;5.340;2023-04-24T08:19:50;25.97;;;14.07;;
40847;SDS011;26570;50.962;5.340;2023-04-24T08:22:37;22.77;;;14.70;;
40847;SDS011;26570;50.962;5.340;2023-04-24T08:25:22;24.97;;;13.47;;
40847;SDS011;26570;50.962;5.340;2023-04-24T08:28:09;22.43;;;12.87;;
40847;SDS011;26570;50.962;5.340;2023-04-24T08:30:55;20.33;;;10.73;;
40847;SDS011;26570;50.962;5.340;2023-04-24T08:33:40;19.13;;;10.77;;
40847;SDS011;26570;50.962;5.340;2023-04-24T08:36:29;21.27;;;10.63;;
40847;SDS011;26570;50.962;5.340;2023-04-24T08:39:16;17.93;;;9.30;;
40847;SDS011;26570;50.962;5.340;2023-04-24T08:42:04;21.57;;;11.07;;
40847;SDS011;26570;50.962;5.340;2023-04-24T08:45:14;25.13;;;10.20;;
40847;SDS011;26570;50.962;5.340;2023-04-24T08:48:00;17.97;;;7.33;;
40847;SDS011;26570;50.962;5.340;2023-04-24T08:51:09;17.50;;;7.10;;
40847;SDS011;26570;50.962;5.340;2023-04-24T08:53:55;17.17;;;7.33;;
40847;SDS011;26570;50.962;5.340;2023-04-24T08:56:42;13.83;;;5.90;;
40847;SDS011;26570;50.962;5.340;2023-04-24T08:59:29;15.53;;;6.33;;
40847;SDS011;26570;50.962;5.340;2023-04-24T09:02:15;16.87;;;5.13;;
40847;SDS011;26570;50.962;5.340;2023-04-24T09:05:02;14.53;;;4.43;;
40847;SDS011;26570;50.962;5.340;2023-04-24T09:07:53;13.17;;;4.03;;
40847;SDS011;26570;50.962;5.340;2023-04-24T09:11:02;11.52;;;3.28;;
40847;SDS011;26570;50.962;5.340;2023-04-24T09:13:50;12.63;;;3.60;;
40847;SDS011;26570;50.962;5.340;2023-04-24T09:16:37;15.53;;;4.40;;
40847;SDS011;26570;50.962;5.340;2023-04-24T09:19:22;14.03;;;5.00;;
40847;SDS011;26570;50.962;5.340;2023-04-24T09:22:08;13.60;;;3.20;;
40847;SDS011;26570;50.962;5.340;2023-04-24T09:25:17;12.27;;;2.43;;
40847;SDS011;26570;50.962;5.340;2023-04-24T09:28:04;11.23;;;1.57;;
40847;SDS011;26570;50.962;5.340;2023-04-24T09:31:15;11.70;;;1.70;;
40847;SDS011;26570;50.962;5.340;2023-04-24T09:34:25;13.80;;;2.27;;
40847;SDS011;26570;50.962;5.340;2023-04-24T09:37:11;8.63;;;1.43;;
40847;SDS011;26570;50.962;5.340;2023-04-24T09:40:13;10.03;;;2.30;;
40847;SDS011;26570;50.962;5.340;2023-04-24T09:43:02;9.70;;;2.70;;
40847;SDS011;26570;50.962;5.340;2023-04-24T09:45:48;9.23;;;2.17;;
40847;SDS011;26570;50.962;5.340;2023-04-24T09:48:34;13.00;;;2.63;;
40847;SDS011;26570;50.962;5.340;2023-04-24T09:51:34;11.90;;;3.10;;
40847;SDS011;26570;50.962;5.340;2023-04-24T09:54:21;13.37;;;2.40;;
40847;SDS011;26570;50.962;5.340;2023-04-24T09:57:07;16.10;;;3.00;;
40847;SDS011;26570;50.962;5.340;2023-04-24T10:00:17;19.03;;;2.70;;
40847;SDS011;26570;50.962;5.340;2023-04-24T10:03:06;10.37;;;2.27;;
40847;SDS011;26570;50.962;5.340;2023-04-24T10:05:52;13.53;;;3.47;;
40847;SDS011;26570;50.962;5.340;2023-04-24T10:08:38;11.77;;;3.13;;
40847;SDS011;26570;50.962;5.340;2023-04-24T10:11:23;11.03;;;2.50;;
40847;SDS011;26570;50.962;5.340;2023-04-24T10:14:13;11.77;;;3.27;;
40847;SDS011;26570;50.962;5.340;2023-04-24T10:16:59;14.47;;;4.70;;
40847;SDS011;26570;50.962;5.340;2023-04-24T10:19:44;10.97;;;2.80;;
40847;SDS011;26570;50.962;5.340;2023-04-24T10:22:32;13.90;;;3.17;;
40847;SDS011;26570;50.962;5.340;2023-04-24T10:25:21;13.27;;;3.23;;
40847;SDS011;26570;50.962;5.340;2023-04-24T10:28:07;8.33;;;2.60;;
40847;SDS011;26570;50.962;5.340;2023-04-24T10:30:54;13.20;;;2.90;;
40847;SDS011;26570;50.962;5.340;2023-04-24T10:33:43;14.40;;;3.13;;
40847;SDS011;26570;50.962;5.340;2023-04-24T10:36:30;9.03;;;2.50;;
40847;SDS011;26570;50.962;5.340;2023-04-24T10:39:16;12.47;;;2.97;;
40847;SDS011;26570;50.962;5.340;2023-04-24T10:42:13;11.27;;;3.33;;
40847;SDS011;26570;50.962;5.340;2023-04-24T10:44:59;15.53;;;3.20;;
40847;SDS011;26570;50.962;5.340;2023-04-24T10:47:56;10.93;;;2.50;;
40847;SDS011;26570;50.962;5.340;2023-04-24T10:51:23;14.03;;;3.60;;
40847;SDS011;26570;50.962;5.340;2023-04-24T10:54:46;12.80;;;3.55;;
40847;SDS011;26570;50.962;5.340;2023-04-24T10:57:32;10.60;;;3.33;;
40847;SDS011;26570;50.962;5.340;2023-04-24T11:00:20;16.43;;;3.63;;
40847;SDS011;26570;50.962;5.340;2023-04-24T11:03:09;13.97;;;3.43;;
40847;SDS011;26570;50.962;5.340;2023-04-24T11:06:14;10.23;;;3.23;;
40847;SDS011;26570;50.962;5.340;2023-04-24T11:09:09;15.50;;;3.73;;
40847;SDS011;26570;50.962;5.340;2023-04-24T11:12:07;17.13;;;3.53;;
40847;SDS011;26570;50.962;5.340;2023-04-24T11:15:00;12.33;;;3.30;;
40847;SDS011;26570;50.962;5.340;2023-04-24T11:17:46;17.23;;;4.30;;
40847;SDS011;26570;50.962;5.340;2023-04-24T11:20:31;13.30;;;3.10;;
40847;SDS011;26570;50.962;5.340;2023-04-24T11:23:17;12.20;;;3.17;;
40847;SDS011;26570;50.962;5.340;2023-04-24T11:26:17;11.93;;;2.70;;
40847;SDS011;26570;50.962;5.340;2023-04-24T11:29:06;11.57;;;3.13;;
40847;SDS011;26570;50.962;5.340;2023-04-24T11:31:53;13.57;;;3.77;;
40847;SDS011;26570;50.962;5.340;2023-04-24T11:34:38;9.13;;;3.03;;
40847;SDS011;26570;50.962;5.340;2023-04-24T11:37:26;14.23;;;3.27;;
40847;SDS011;26570;50.962;5.340;2023-04-24T11:40:14;10.30;;;3.17;;
40847;SDS011;26570;50.962;5.340;2023-04-24T11:43:00;8.97;;;2.17;;
40847;SDS011;26570;50.962;5.340;2023-04-24T11:45:49;8.57;;;1.77;;
40847;SDS011;26570;50.962;5.340;2023-04-24T11:48:34;12.50;;;2.13;;
40847;SDS011;26570;50.962;5.340;2023-04-24T11:51:24;10.27;;;2.10;;
40847;SDS011;26570;50.962;5.340;2023-04-24T11:54:11;7.10;;;1.97;;
40847;SDS011;26570;50.962;5.340;2023-04-24T11:56:56;6.50;;;1.23;;
40847;SDS011;26570;50.962;5.340;2023-04-24T11:59:42;10.60;;;2.00;;
40847;SDS011;26570;50.962;5.340;2023-04-24T12:02:28;10.77;;;2.50;;
40847;SDS011;26570;50.962;5.340;2023-04-24T12:08:06;10.33;;;1.60;;
40847;SDS011;26570;50.962;5.340;2023-04-24T12:10:52;6.30;;;1.87;;
40847;SDS011;26570;50.962;5.340;2023-04-24T12:13:38;13.23;;;2.13;;
40847;SDS011;26570;50.962;5.340;2023-04-24T12:16:25;7.93;;;1.77;;
40847;SDS011;26570;50.962;5.340;2023-04-24T12:19:12;6.70;;;1.07;;
40847;SDS011;26570;50.962;5.340;2023-04-24T12:22:05;7.90;;;1.53;;
40847;SDS011;26570;50.962;5.340;2023-04-24T12:25:14;8.23;;;1.73;;
40847;SDS011;26570;50.962;5.340;2023-04-24T12:30:48;7.13;;;1.50;;
40847;SDS011;26570;50.962;5.340;2023-04-24T12:33:35;6.60;;;1.30;;
40847;SDS011;26570;50.962;5.340;2023-04-24T12:36:22;6.63;;;1.53;;
40847;SDS011;26570;50.962;5.340;2023-04-24T12:39:14;8.07;;;1.77;;
40847;SDS011;26570;50.962;5.340;2023-04-24T12:42:04;12.03;;;2.07;;
40847;SDS011;26570;50.962;5.340;2023-04-24T12:44:49;9.13;;;1.70;;
40847;SDS011;26570;50.962;5.340;2023-04-24T12:47:40;6.70;;;2.07;;
40847;SDS011;26570;50.962;5.340;2023-04-24T12:50:28;8.03;;;1.30;;
40847;SDS011;26570;50.962;5.340;2023-04-24T12:53:14;4.27;;;1.27;;
40847;SDS011;26570;50.962;5.340;2023-04-24T12:56:23;8.07;;;1.13;;
40847;SDS011;26570;50.962;5.340;2023-04-24T12:59:08;4.20;;;1.03;;
40847;SDS011;26570;50.962;5.340;2023-04-24T13:01:54;8.93;;;1.20;;
40847;SDS011;26570;50.962;5.340;2023-04-24T13:04:40;6.33;;;1.63;;
40847;SDS011;26570;50.962;5.340;2023-04-24T13:07:26;5.07;;;1.10;;
40847;SDS011;26570;50.962;5.340;2023-04-24T13:10:12;3.47;;;1.60;;
40847;SDS011;26570;50.962;5.340;2023-04-24T13:12:57;5.20;;;0.90;;
40847;SDS011;26570;50.962;5.340;2023-04-24T13:15:44;6.50;;;1.17;;
40847;SDS011;26570;50.962;5.340;2023-04-24T13:18:52;4.43;;;1.37;;
40847;SDS011;26570;50.962;5.340;2023-04-24T13:21:38;9.37;;;1.33;;
40847;SDS011;26570;50.962;5.340;2023-04-24T13:24:24;4.40;;;1.50;;
40847;SDS011;26570;50.962;5.340;2023-04-24T13:27:10;4.77;;;1.03;;
40847;SDS011;26570;50.962;5.340;2023-04-24T13:30:19;3.57;;;1.20;;
40847;SDS011;26570;50.962;5.340;2023-04-24T13:33:05;6.40;;;0.93;;
40847;SDS011;26570;50.962;5.340;2023-04-24T13:35:51;7.13;;;1.20;;
40847;SDS011;26570;50.962;5.340;2023-04-24T13:39:00;5.53;;;1.00;;
40847;SDS011;26570;50.962;5.340;2023-04-24T13:41:45;5.20;;;1.00;;
40847;SDS011;26570;50.962;5.340;2023-04-24T13:44:33;4.77;;;1.20;;
40847;SDS011;26570;50.962;5.340;2023-04-24T13:47:19;7.33;;;1.30;;
40847;SDS011;26570;50.962;5.340;2023-04-24T13:50:06;7.67;;;1.00;;
40847;SDS011;26570;50.962;5.340;2023-04-24T13:52:53;4.03;;;0.90;;
40847;SDS011;26570;50.962;5.340;2023-04-24T13:55:41;4.43;;;1.17;;
40847;SDS011;26570;50.962;5.340;2023-04-24T13:58:27;4.30;;;1.10;;
40847;SDS011;26570;50.962;5.340;2023-04-24T14:01:14;3.77;;;0.90;;
40847;SDS011;26570;50.962;5.340;2023-04-24T14:04:00;3.73;;;0.80;;
40847;SDS011;26570;50.962;5.340;2023-04-24T14:06:46;3.23;;;0.70;;
40847;SDS011;26570;50.962;5.340;2023-04-24T14:09:33;3.47;;;0.60;;
40847;SDS011;26570;50.962;5.340;2023-04-24T14:12:19;5.37;;;0.80;;
40847;SDS011;26570;50.962;5.340;2023-04-24T14:15:06;5.57;;;0.73;;
40847;SDS011;26570;50.962;5.340;2023-04-24T14:17:53;5.70;;;0.90;;
40847;SDS011;26570;50.962;5.340;2023-04-24T14:21:04;5.73;;;0.90;;
40847;SDS011;26570;50.962;5.340;2023-04-24T14:23:53;7.10;;;1.00;;
40847;SDS011;26570;50.962;5.340;2023-04-24T14:26:39;5.23;;;1.33;;
40847;SDS011;26570;50.962;5.340;2023-04-24T14:29:24;4.70;;;0.83;;
40847;SDS011;26570;50.962;5.340;2023-04-24T14:32:10;6.67;;;0.70;;
40847;SDS011;26570;50.962;5.340;2023-04-24T14:34:59;5.00;;;0.70;;
40847;SDS011;26570;50.962;5.340;2023-04-24T14:37:45;2.47;;;0.90;;
40847;SDS011;26570;50.962;5.340;2023-04-24T14:40:32;3.90;;;0.70;;
40847;SDS011;26570;50.962;5.340;2023-04-24T14:43:18;4.97;;;0.73;;
40847;SDS011;26570;50.962;5.340;2023-04-24T14:46:04;6.30;;;0.70;;
40847;SDS011;26570;50.962;5.340;2023-04-24T14:48:49;4.57;;;0.63;;
40847;SDS011;26570;50.962;5.340;2023-04-24T14:51:58;3.90;;;0.90;;
40847;SDS011;26570;50.962;5.340;2023-04-24T14:54:44;2.80;;;0.70;;
40847;SDS011;26570;50.962;5.340;2023-04-24T14:57:30;3.90;;;0.60;;
40847;SDS011;26570;50.962;5.340;2023-04-24T15:00:17;7.80;;;0.80;;
40847;SDS011;26570;50.962;5.340;2023-04-24T15:03:26;3.63;;;0.57;;
40847;SDS011;26570;50.962;5.340;2023-04-24T15:06:13;3.37;;;0.60;;
40847;SDS011;26570;50.962;5.340;2023-04-24T15:08:59;5.30;;;0.57;;
40847;SDS011;26570;50.962;5.340;2023-04-24T15:11:45;3.20;;;0.60;;
40847;SDS011;26570;50.962;5.340;2023-04-24T15:14:30;4.60;;;0.67;;
40847;SDS011;26570;50.962;5.340;2023-04-24T15:17:38;5.07;;;0.50;;
40847;SDS011;26570;50.962;5.340;2023-04-24T15:20:24;2.50;;;0.50;;
40847;SDS011;26570;50.962;5.340;2023-04-24T15:23:10;2.00;;;0.60;;
40847;SDS011;26570;50.962;5.340;2023-04-24T15:25:56;1.73;;;0.40;;
40847;SDS011;26570;50.962;5.340;2023-04-24T15:28:43;2.43;;;0.50;;
40847;SDS011;26570;50.962;5.340;2023-04-24T15:31:30;1.73;;;0.50;;
40847;SDS011;26570;50.962;5.340;2023-04-24T15:34:16;1.87;;;0.50;;
40847;SDS011;26570;50.962;5.340;2023-04-24T15:37:02;1.57;;;0.40;;
40847;SDS011;26570;50.962;5.340;2023-04-24T15:39:49;1.93;;;0.40;;
40847;SDS011;26570;50.962;5.340;2023-04-24T15:42:35;4.87;;;0.80;;
40847;SDS011;26570;50.962;5.340;2023-04-24T15:45:21;2.57;;;0.40;;
40847;SDS011;26570;50.962;5.340;2023-04-24T15:48:08;2.87;;;0.50;;
40847;SDS011;26570;50.962;5.340;2023-04-24T15:50:54;3.23;;;0.50;;
40847;SDS011;26570;50.962;5.340;2023-04-24T15:53:40;3.90;;;0.40;;
40847;SDS011;26570;50.962;5.340;2023-04-24T15:56:25;2.50;;;0.40;;
40847;SDS011;26570;50.962;5.340;2023-04-24T15:59:11;2.13;;;0.40;;
40847;SDS011;26570;50.962;5.340;2023-04-24T16:01:57;1.30;;;0.40;;
40847;SDS011;26570;50.962;5.340;2023-04-24T16:04:44;3.77;;;0.47;;
40847;SDS011;26570;50.962;5.340;2023-04-24T16:07:31;3.63;;;0.40;;
40847;SDS011;26570;50.962;5.340;2023-04-24T16:10:18;1.10;;;0.40;;
40847;SDS011;26570;50.962;5.340;2023-04-24T16:13:04;1.50;;;0.30;;
40847;SDS011;26570;50.962;5.340;2023-04-24T16:15:51;3.17;;;0.50;;
40847;SDS011;26570;50.962;5.340;2023-04-24T16:18:36;0.83;;;0.23;;
40847;SDS011;26570;50.962;5.340;2023-04-24T16:21:22;3.53;;;0.40;;
40847;SDS011;26570;50.962;5.340;2023-04-24T16:24:08;2.20;;;0.30;;
40847;SDS011;26570;50.962;5.340;2023-04-24T16:26:54;4.40;;;0.30;;
40847;SDS011;26570;50.962;5.340;2023-04-24T16:29:39;4.47;;;0.30;;
40847;SDS011;26570;50.962;5.340;2023-04-24T16:32:25;1.43;;;0.30;;
40847;SDS011;26570;50.962;5.340;2023-04-24T16:35:10;3.93;;;0.30;;
40847;SDS011;26570;50.962;5.340;2023-04-24T16:37:56;3.00;;;0.40;;
40847;SDS011;26570;50.962;5.340;2023-04-24T16:40:42;3.27;;;0.30;;
40847;SDS011;26570;50.962;5.340;2023-04-24T16:43:28;2.03;;;0.30;;
40847;SDS011;26570;50.962;5.340;2023-04-24T16:46:14;2.83;;;0.43;;
40847;SDS011;26570;50.962;5.340;2023-04-24T16:49:00;2.80;;;0.40;;